Time;durP1;ratioP1;P1;durP2;ratioP2;P2;SDS_P1;SDS_P2;PMS_P1;PMS_P2;Temp;Humidity;BMP_temperature;BMP_pressure;BME280_temperature;BME280_humidity;BME280_pressure;Samples;Min_cycle;Max_cycle;Signal;HPM_P1;HPM_P2
2023/01/16 00:01:49;;;;;;;10.00;6.73;;;2.40;89.50;;;;;;5028004;28;20188;-73
2023/01/16 00:04:14;;;;;;;9.10;7.10;;;2.50;89.40;;;;;;5028512;28;20195;-73
2023/01/16 00:06:40;;;;;;;10.03;6.10;;;2.50;89.30;;;;;;5032310;28;20211;-72
2023/01/16 00:09:06;;;;;;;9.07;6.97;;;2.50;89.20;;;;;;5023376;28;20591;-72
2023/01/16 00:11:32;;;;;;;11.33;6.53;;;2.50;89.00;;;;;;5030890;28;20696;-72
2023/01/16 00:13:58;;;;;;;7.77;6.23;;;2.50;89.10;;;;;;5030817;28;20187;-72
2023/01/16 00:16:25;;;;;;;11.83;7.33;;;2.50;89.20;;;;;;5023918;28;20196;-73
2023/01/16 00:18:51;;;;;;;8.67;6.47;;;2.50;89.00;;;;;;5028065;28;20183;-72
2023/01/16 00:21:17;;;;;;;9.37;5.27;;;2.50;89.20;;;;;;5023193;28;20643;-73
2023/01/16 00:23:43;;;;;;;9.23;4.77;;;2.50;89.20;;;;;;5039799;28;20381;-73
2023/01/16 00:26:09;;;;;;;7.83;5.90;;;2.50;89.20;;;;;;5036621;28;20171;-73
2023/01/16 00:28:37;;;;;;;9.37;6.20;;;2.50;88.90;;;;;;5025956;28;20208;-72
2023/01/16 00:31:06;;;;;;;10.63;6.77;;;2.50;88.80;;;;;;5022697;28;20592;-72
2023/01/16 00:33:33;;;;;;;12.03;6.13;;;2.50;88.80;;;;;;5023959;28;20239;-72
2023/01/16 00:35:59;;;;;;;8.83;6.13;;;2.50;89.00;;;;;;5023889;28;20180;-72
2023/01/16 00:38:24;;;;;;;9.20;6.37;;;2.50;89.00;;;;;;5029007;28;20280;-71
2023/01/16 00:40:50;;;;;;;10.97;6.67;;;2.50;89.20;;;;;;5024491;28;20216;-71
2023/01/16 00:43:16;;;;;;;10.13;5.30;;;2.50;88.80;;;;;;5026415;28;20634;-73
2023/01/16 00:45:42;;;;;;;5.73;5.13;;;2.50;89.10;;;;;;5027511;28;20282;-72
2023/01/16 00:48:08;;;;;;;11.60;5.97;;;2.50;89.20;;;;;;5030528;28;20237;-71
2023/01/16 00:50:34;;;;;;;9.10;5.47;;;2.50;88.80;;;;;;5032103;28;20181;-71
2023/01/16 00:53:00;;;;;;;8.17;6.33;;;2.50;88.70;;;;;;5034819;28;20829;-73
2023/01/16 00:55:25;;;;;;;11.50;6.87;;;2.50;88.70;;;;;;5027716;28;20189;-73
2023/01/16 00:57:51;;;;;;;10.47;5.87;;;2.50;88.50;;;;;;5040726;28;20750;-73
2023/01/16 01:00:20;;;;;;;9.47;5.57;;;2.50;88.40;;;;;;5028827;28;20770;-73
2023/01/16 01:02:48;;;;;;;9.50;6.17;;;2.50;88.80;;;;;;5025742;28;20195;-72
2023/01/16 01:05:14;;;;;;;10.77;5.10;;;2.50;89.00;;;;;;5027980;28;20184;-72
2023/01/16 01:07:40;;;;;;;7.87;4.83;;;2.50;89.20;;;;;;5030967;28;20308;-73
2023/01/16 01:10:06;;;;;;;9.77;5.97;;;2.50;89.00;;;;;;5035830;28;20277;-74
2023/01/16 01:12:32;;;;;;;13.13;6.87;;;2.50;88.80;;;;;;5025322;28;20188;-74
2023/01/16 01:14:57;;;;;;;13.77;5.90;;;2.50;88.70;;;;;;5026129;28;20868;-73
2023/01/16 01:17:23;;;;;;;8.97;5.70;;;2.50;89.50;;;;;;5028951;28;20184;-73
2023/01/16 01:19:49;;;;;;;11.23;6.03;;;2.50;89.70;;;;;;5027501;28;20207;-74
2023/01/16 01:22:15;;;;;;;12.10;6.10;;;2.50;89.70;;;;;;5027340;28;20185;-74
2023/01/16 01:24:42;;;;;;;8.37;5.80;;;2.40;89.70;;;;;;5026675;28;20238;-72
2023/01/16 01:27:07;;;;;;;9.23;5.40;;;2.40;89.40;;;;;;5031253;28;20208;-72
2023/01/16 01:29:33;;;;;;;10.93;5.57;;;2.40;89.40;;;;;;5025546;28;20199;-72
2023/01/16 01:31:59;;;;;;;11.13;5.77;;;2.40;89.80;;;;;;5049726;28;20299;-72
2023/01/16 01:34:25;;;;;;;12.07;5.87;;;2.30;89.80;;;;;;5029875;28;20700;-72
2023/01/16 01:36:50;;;;;;;5.80;5.20;;;2.30;89.90;;;;;;5028956;28;20196;-71
2023/01/16 01:39:16;;;;;;;8.20;5.97;;;2.20;90.20;;;;;;5028453;28;20630;-72
2023/01/16 01:41:42;;;;;;;11.77;6.57;;;2.20;90.40;;;;;;5026762;28;20894;-72
2023/01/16 01:44:42;;;;;;;7.83;4.97;;;2.20;91.10;;;;;;5031720;28;20192;-73
2023/01/16 01:47:08;;;;;;;8.13;4.87;;;2.20;91.60;;;;;;5022885;28;20592;-72
2023/01/16 01:49:33;;;;;;;10.60;5.80;;;2.20;91.30;;;;;;5024726;28;20211;-72
2023/01/16 01:52:03;;;;;;;9.40;5.00;;;2.20;91.30;;;;;;5025176;28;20642;-73
2023/01/16 01:54:34;;;;;;;8.23;5.17;;;2.20;91.30;;;;;;5020460;28;20198;-72
2023/01/16 01:57:06;;;;;;;9.27;5.83;;;2.20;91.30;;;;;;5029798;28;20188;-72
2023/01/16 01:59:37;;;;;;;9.43;5.07;;;2.10;90.70;;;;;;5027547;28;20208;-72
2023/01/16 02:02:05;;;;;;;9.13;4.50;;;2.10;90.80;;;;;;5024558;28;20196;-72
2023/01/16 02:04:36;;;;;;;9.07;4.43;;;2.10;91.10;;;;;;5025505;28;20220;-73
2023/01/16 02:07:11;;;;;;;12.73;6.43;;;2.10;91.60;;;;;;5025000;28;20999;-73
2023/01/16 02:09:37;;;;;;;8.40;5.13;;;2.10;91.90;;;;;;5028126;28;20299;-72
2023/01/16 02:12:14;;;;;;;8.03;5.03;;;2.10;92.10;;;;;;5027019;28;20290;-72
2023/01/16 02:14:42;;;;;;;11.07;4.73;;;2.10;92.00;;;;;;5029290;28;20188;-72
2023/01/16 02:20:09;;;;;;;16.10;6.53;;;2.00;92.30;;;;;;5029269;28;20287;-74
2023/01/16 02:22:57;;;;;;;9.53;4.77;;;2.00;91.50;;;;;;5022196;28;20194;-73
2023/01/16 02:25:44;;;;;;;7.87;4.90;;;1.90;92.00;;;;;;5035268;28;20188;-72
2023/01/16 02:28:45;;;;;;;9.13;4.83;;;2.00;92.60;;;;;;5025881;28;20220;-72
2023/01/16 02:31:26;;;;;;;11.20;5.27;;;2.00;92.80;;;;;;5027638;28;20186;-72
2023/01/16 02:34:10;;;;;;;10.03;4.77;;;1.90;92.60;;;;;;5026856;28;20195;-73
2023/01/16 02:36:53;;;;;;;15.07;5.17;;;1.90;92.10;;;;;;5022151;28;20177;-72
2023/01/16 02:39:27;;;;;;;15.03;5.73;;;1.90;92.20;;;;;;5022343;28;20265;-72
2023/01/16 02:42:03;;;;;;;10.07;4.97;;;1.90;91.90;;;;;;5025514;28;20181;-73
2023/01/16 02:44:42;;;;;;;7.23;4.80;;;1.90;91.70;;;;;;5024919;28;20223;-73
2023/01/16 02:47:11;;;;;;;12.17;5.27;;;1.90;92.20;;;;;;5026197;28;20792;-72
2023/01/16 02:50:23;;;;;;;11.03;5.33;;;1.90;92.30;;;;;;5026597;28;20560;-73
2023/01/16 02:53:00;;;;;;;6.90;4.53;;;1.80;91.50;;;;;;5003030;28;20204;-74
2023/01/16 02:55:29;;;;;;;12.10;5.17;;;1.80;91.40;;;;;;5011104;28;20274;-72
2023/01/16 02:57:59;;;;;;;9.97;4.97;;;1.80;92.00;;;;;;5008310;28;20976;-72
2023/01/16 03:00:26;;;;;;;9.47;4.63;;;1.80;91.80;;;;;;5004482;28;20197;-72
2023/01/16 03:02:52;;;;;;;5.30;4.63;;;1.90;92.10;;;;;;5001439;28;20185;-72
2023/01/16 03:05:19;;;;;;;10.13;5.20;;;1.90;91.80;;;;;;5004563;28;21073;-73
2023/01/16 03:08:13;;;;;;;13.47;5.80;;;1.80;91.40;;;;;;4991661;28;20272;-72
2023/01/16 03:11:02;;;;;;;15.27;6.40;;;1.70;91.90;;;;;;5004706;28;20365;-71
2023/01/16 03:13:54;;;;;;;8.53;4.00;;;1.70;92.20;;;;;;5000759;28;20192;-72
2023/01/16 03:16:49;;;;;;;7.83;4.80;;;1.80;92.40;;;;;;5002334;28;21602;-73
2023/01/16 03:19:43;;;;;;;6.90;4.40;;;1.80;92.80;;;;;;5001694;28;20233;-74
2023/01/16 03:22:46;;;;;;;8.73;4.80;;;1.90;92.60;;;;;;5007045;28;20189;-72
2023/01/16 03:25:17;;;;;;;9.60;4.73;;;1.90;92.50;;;;;;4926758;28;20198;-73
2023/01/16 03:27:49;;;;;;;9.47;4.87;;;1.90;92.30;;;;;;4926711;29;20330;-73
2023/01/16 03:30:19;;;;;;;11.30;5.13;;;2.00;92.10;;;;;;4926314;29;20195;-73
2023/01/16 03:32:50;;;;;;;7.70;4.17;;;2.00;92.40;;;;;;4925072;29;20274;-72
2023/01/16 03:35:22;;;;;;;18.87;5.63;;;2.10;92.80;;;;;;4924847;29;20576;-73
2023/01/16 03:37:54;;;;;;;13.73;5.97;;;2.10;92.80;;;;;;4925332;29;20593;-72
2023/01/16 03:40:27;;;;;;;10.80;5.60;;;2.10;92.40;;;;;;4922539;29;20191;-72
2023/01/16 03:43:04;;;;;;;12.70;6.23;;;2.10;92.80;;;;;;4922846;29;20204;-73
2023/01/16 03:45:38;;;;;;;13.03;5.30;;;2.10;92.10;;;;;;4923926;29;20544;-71
2023/01/16 03:48:19;;;;;;;9.20;5.17;;;2.20;92.30;;;;;;4924762;29;20277;-73
2023/01/16 03:50:52;;;;;;;6.87;4.50;;;2.20;92.90;;;;;;4919255;29;20185;-74
2023/01/16 03:53:23;;;;;;;12.20;5.13;;;2.30;93.30;;;;;;4918063;29;20217;-72
2023/01/16 03:56:02;;;;;;;11.20;5.20;;;2.30;93.30;;;;;;4932361;29;20230;-72
2023/01/16 03:58:34;;;;;;;9.67;5.27;;;2.30;93.30;;;;;;4950831;28;20201;-72
2023/01/16 04:01:18;;;;;;;12.77;5.23;;;2.30;92.80;;;;;;4960866;28;20623;-72
2023/01/16 04:04:03;;;;;;;7.20;5.40;;;2.30;93.40;;;;;;5023375;28;20188;-73
2023/01/16 04:06:37;;;;;;;12.77;6.00;;;2.30;93.00;;;;;;5035764;28;20184;-72
2023/01/16 04:09:10;;;;;;;13.37;6.67;;;2.20;93.60;;;;;;5022873;28;20176;-73
2023/01/16 04:11:39;;;;;;;8.10;4.23;;;2.20;93.30;;;;;;5023592;28;20242;-73
2023/01/16 04:14:07;;;;;;;13.40;6.20;;;2.30;93.40;;;;;;5029152;28;20192;-72
2023/01/16 04:16:33;;;;;;;9.90;4.70;;;2.30;93.00;;;;;;5026696;28;20251;-72
2023/01/16 04:19:01;;;;;;;13.50;6.17;;;2.30;92.80;;;;;;5028796;28;20189;-72
2023/01/16 04:21:28;;;;;;;13.53;5.23;;;2.30;92.70;;;;;;5024073;28;20184;-72
2023/01/16 04:23:56;;;;;;;10.70;5.20;;;2.40;93.00;;;;;;5028457;28;20253;-72
2023/01/16 04:26:22;;;;;;;11.40;5.13;;;2.40;92.80;;;;;;5023046;28;20642;-71
2023/01/16 04:28:52;;;;;;;12.23;5.47;;;2.30;92.30;;;;;;5022296;28;20215;-73
2023/01/16 04:31:19;;;;;;;10.87;5.10;;;2.40;92.80;;;;;;5027133;28;21050;-73
2023/01/16 04:33:44;;;;;;;12.07;5.93;;;2.30;93.10;;;;;;5031553;28;20181;-72
2023/01/16 04:36:10;;;;;;;11.80;5.43;;;2.30;92.70;;;;;;5026156;28;20192;-72
2023/01/16 04:38:36;;;;;;;17.03;5.23;;;2.30;92.40;;;;;;5024537;28;20188;-73
2023/01/16 04:41:01;;;;;;;15.10;5.90;;;2.40;92.50;;;;;;5040144;28;20184;-71
2023/01/16 04:43:27;;;;;;;16.77;8.00;;;2.30;92.80;;;;;;5028294;28;20865;-72
2023/01/16 04:45:52;;;;;;;11.03;5.60;;;2.20;93.50;;;;;;5036765;28;20196;-73
2023/01/16 04:48:18;;;;;;;8.93;5.77;;;2.30;93.20;;;;;;5031985;28;20214;-73
2023/01/16 04:50:48;;;;;;;6.07;4.77;;;2.30;92.70;;;;;;5024939;28;20219;-74
2023/01/16 04:53:13;;;;;;;11.83;5.53;;;2.40;93.00;;;;;;5029404;28;20180;-72
2023/01/16 04:55:39;;;;;;;14.80;6.40;;;2.40;93.20;;;;;;5028435;28;20214;-74
2023/01/16 04:58:05;;;;;;;14.03;6.27;;;2.40;92.90;;;;;;5013427;28;20193;-72
2023/01/16 05:00:30;;;;;;;11.97;6.53;;;2.40;93.00;;;;;;5032534;28;20266;-72
2023/01/16 05:02:56;;;;;;;12.63;4.87;;;2.50;93.00;;;;;;5039554;28;21039;-72
2023/01/16 05:05:22;;;;;;;15.17;6.23;;;2.50;93.20;;;;;;5031367;28;20684;-72
2023/01/16 05:08:15;;;;;;;5.87;4.43;;;2.50;93.10;;;;;;5028206;28;20803;-72
2023/01/16 05:10:33;;;;;;;13.53;5.23;;;2.60;93.00;;;;;;5036003;28;20233;-73
2023/01/16 05:12:59;;;;;;;9.33;4.97;;;2.50;92.70;;;;;;5027116;28;20184;-74
2023/01/16 05:15:24;;;;;;;12.57;5.67;;;2.60;92.80;;;;;;5027582;28;20192;-73
2023/01/16 05:17:50;;;;;;;10.20;5.57;;;2.60;93.00;;;;;;5027349;28;20211;-74
2023/01/16 05:20:15;;;;;;;9.77;5.50;;;2.70;92.90;;;;;;5039846;28;20195;-73
2023/01/16 05:22:41;;;;;;;11.27;5.77;;;2.60;92.60;;;;;;5026310;28;20184;-73
2023/01/16 05:25:07;;;;;;;12.93;6.47;;;2.60;92.70;;;;;;5029731;28;20263;-73
2023/01/16 05:27:32;;;;;;;12.47;5.47;;;2.60;92.60;;;;;;5036661;28;20218;-74
2023/01/16 05:29:58;;;;;;;11.80;5.20;;;2.60;92.50;;;;;;5028630;28;20184;-71
2023/01/16 05:32:24;;;;;;;14.27;6.27;;;2.60;92.80;;;;;;5025223;28;20184;-69
2023/01/16 05:34:49;;;;;;;11.30;5.57;;;2.60;93.00;;;;;;5026867;28;20196;-70
2023/01/16 05:37:15;;;;;;;14.30;6.33;;;2.70;93.00;;;;;;5026682;28;20229;-69
2023/01/16 05:39:41;;;;;;;12.30;6.03;;;2.70;92.90;;;;;;5030685;28;20194;-70
2023/01/16 05:42:20;;;;;;;10.50;5.57;;;2.70;92.80;;;;;;5027919;28;20200;-69
2023/01/16 05:44:50;;;;;;;12.83;5.87;;;2.70;92.80;;;;;;5022792;28;20765;-69
2023/01/16 05:47:16;;;;;;;13.47;5.87;;;2.70;93.00;;;;;;5027246;28;20579;-72
2023/01/16 05:49:41;;;;;;;13.00;6.07;;;2.60;92.80;;;;;;5026436;28;20196;-69
2023/01/16 05:52:07;;;;;;;11.73;5.80;;;2.70;93.10;;;;;;5029054;28;20176;-69
2023/01/16 05:54:32;;;;;;;10.60;5.40;;;2.70;93.30;;;;;;5024218;28;20180;-69
2023/01/16 05:56:58;;;;;;;10.00;6.27;;;2.70;93.20;;;;;;5026106;28;20238;-70
2023/01/16 05:59:24;;;;;;;11.70;6.03;;;2.70;93.10;;;;;;5028630;28;20192;-71
2023/01/16 06:01:50;;;;;;;13.47;6.40;;;2.70;92.80;;;;;;5034890;28;20191;-72
2023/01/16 06:04:17;;;;;;;8.70;5.57;;;2.70;92.90;;;;;;5029812;28;20276;-72
2023/01/16 06:06:43;;;;;;;10.50;5.40;;;2.70;93.00;;;;;;5020021;28;20191;-73
2023/01/16 06:09:09;;;;;;;16.47;6.37;;;2.80;93.00;;;;;;5024577;28;20626;-69
2023/01/16 06:11:34;;;;;;;9.80;5.43;;;2.80;92.60;;;;;;5054332;28;20212;-69
2023/01/16 06:14:03;;;;;;;10.03;5.40;;;2.70;92.40;;;;;;5026654;28;20188;-70
2023/01/16 06:16:29;;;;;;;7.63;4.80;;;2.80;92.40;;;;;;5029186;28;20184;-69
2023/01/16 06:18:55;;;;;;;11.20;6.57;;;2.80;92.20;;;;;;5026039;28;20187;-70
2023/01/16 06:21:20;;;;;;;9.87;4.80;;;2.90;92.40;;;;;;5025845;28;20173;-70
2023/01/16 06:23:46;;;;;;;12.87;6.07;;;2.90;92.20;;;;;;5025852;28;20219;-69
2023/01/16 06:26:12;;;;;;;6.93;4.23;;;3.00;92.90;;;;;;5026372;28;20180;-70
2023/01/16 06:28:38;;;;;;;12.33;7.17;;;3.00;92.60;;;;;;5026462;28;20278;-71
2023/01/16 06:31:05;;;;;;;9.83;5.00;;;3.10;92.80;;;;;;5024878;28;20567;-69
2023/01/16 06:33:31;;;;;;;11.77;6.50;;;3.10;92.60;;;;;;5026158;28;20184;-69
2023/01/16 06:35:57;;;;;;;13.57;7.30;;;3.10;92.20;;;;;;5041325;28;20258;-71
2023/01/16 06:38:23;;;;;;;10.20;6.07;;;3.10;92.30;;;;;;5026350;28;20180;-70
2023/01/16 06:40:49;;;;;;;11.57;6.47;;;3.10;92.50;;;;;;5026118;28;20204;-69
2023/01/16 06:43:17;;;;;;;10.63;5.73;;;3.20;92.50;;;;;;5025700;28;20618;-70
2023/01/16 06:45:45;;;;;;;20.47;6.23;;;3.20;92.50;;;;;;5026045;28;20776;-70
2023/01/16 06:48:11;;;;;;;9.13;5.43;;;3.30;92.30;;;;;;5024778;28;20242;-70
2023/01/16 06:50:36;;;;;;;10.07;5.20;;;3.30;92.30;;;;;;5026185;28;20173;-71
2023/01/16 06:53:02;;;;;;;18.13;6.47;;;3.40;92.60;;;;;;5026083;28;20177;-70
2023/01/16 06:55:28;;;;;;;11.90;6.70;;;3.50;92.50;;;;;;5025702;28;20172;-69
2023/01/16 06:57:54;;;;;;;14.77;6.17;;;3.50;92.60;;;;;;5025945;28;20196;-70
2023/01/16 07:00:19;;;;;;;8.47;5.53;;;3.60;93.00;;;;;;5025432;28;20259;-70
2023/01/16 07:02:51;;;;;;;16.87;7.30;;;3.60;92.50;;;;;;5025506;28;20188;-70
2023/01/16 07:05:17;;;;;;;14.87;7.67;;;3.70;92.10;;;;;;5025659;28;20176;-71
2023/01/16 07:07:43;;;;;;;9.67;5.73;;;3.70;92.20;;;;;;5025584;28;20282;-70
2023/01/16 07:10:09;;;;;;;15.67;6.50;;;3.80;92.50;;;;;;5025310;28;20242;-69
2023/01/16 07:12:35;;;;;;;16.90;6.80;;;3.80;92.60;;;;;;5025545;28;20726;-70
2023/01/16 07:23:24;;;;;;;15.50;8.07;;;3.90;92.00;;;;;;5025825;28;20276;-69
2023/01/16 07:25:53;;;;;;;13.80;6.87;;;3.80;91.40;;;;;;5025545;28;20200;-71
2023/01/16 07:28:19;;;;;;;15.63;7.30;;;3.90;92.30;;;;;;5023690;28;20204;-71
2023/01/16 07:30:45;;;;;;;16.20;7.57;;;3.90;91.90;;;;;;5023353;28;20562;-71
2023/01/16 07:33:11;;;;;;;16.93;7.73;;;3.90;91.70;;;;;;5025182;28;20181;-71
2023/01/16 07:35:37;;;;;;;11.93;6.50;;;3.90;91.40;;;;;;5025198;28;20179;-71
2023/01/16 07:38:03;;;;;;;15.50;6.17;;;4.00;92.20;;;;;;5025273;28;20180;-70
2023/01/16 07:40:29;;;;;;;14.77;7.73;;;4.00;92.00;;;;;;5025746;28;20191;-71
2023/01/16 07:42:54;;;;;;;12.73;6.47;;;4.10;91.90;;;;;;5025172;28;20180;-70
2023/01/16 07:45:20;;;;;;;10.63;6.77;;;4.10;91.50;;;;;;5023285;28;20192;-70
2023/01/16 07:47:46;;;;;;;10.57;6.00;;;4.10;91.30;;;;;;5025407;28;20212;-70
2023/01/16 07:50:11;;;;;;;14.33;6.63;;;4.10;91.50;;;;;;5025211;28;20218;-70
2023/01/16 07:52:37;;;;;;;16.67;7.30;;;4.00;91.30;;;;;;5024547;28;20180;-70
2023/01/16 07:55:03;;;;;;;14.73;7.13;;;4.00;91.10;;;;;;5023282;28;20180;-70
2023/01/16 07:57:29;;;;;;;13.43;6.30;;;4.10;91.30;;;;;;5012652;28;20271;-70
2023/01/16 07:59:55;;;;;;;20.90;8.67;;;4.10;91.40;;;;;;5022940;28;20320;-70
2023/01/16 08:02:20;;;;;;;15.07;7.87;;;4.20;91.30;;;;;;5023148;28;20183;-70
2023/01/16 08:04:47;;;;;;;16.87;7.77;;;4.20;91.10;;;;;;5023767;28;20566;-69
2023/01/16 08:07:13;;;;;;;18.67;7.67;;;4.30;91.80;;;;;;5023404;28;20929;-70
2023/01/16 08:09:38;;;;;;;15.47;7.53;;;4.40;91.60;;;;;;5023499;28;20184;-70
2023/01/16 08:12:04;;;;;;;14.07;7.30;;;4.50;91.40;;;;;;5024223;28;20603;-69
2023/01/16 08:14:30;;;;;;;20.87;9.47;;;4.60;92.20;;;;;;5025042;28;20238;-69
2023/01/16 08:16:55;;;;;;;10.63;6.73;;;4.70;91.40;;;;;;5040019;28;20173;-68
2023/01/16 08:19:21;;;;;;;15.17;8.23;;;4.80;91.50;;;;;;5023805;28;20372;-69
2023/01/16 08:21:47;;;;;;;18.20;8.07;;;4.80;90.70;;;;;;5037685;28;20222;-69
2023/01/16 08:24:13;;;;;;;17.50;8.40;;;4.80;90.70;;;;;;5022809;28;20548;-69
2023/01/16 08:26:40;;;;;;;16.97;8.30;;;4.90;90.90;;;;;;5025808;28;20168;-69
2023/01/16 08:29:06;;;;;;;19.53;8.97;;;5.00;90.60;;;;;;5028906;28;20172;-69
2023/01/16 08:31:31;;;;;;;17.90;8.33;;;5.00;91.10;;;;;;5028669;28;20553;-69
2023/01/16 08:33:57;;;;;;;20.97;9.00;;;5.10;90.60;;;;;;5028483;28;20184;-69
2023/01/16 08:36:25;;;;;;;18.30;9.77;;;5.10;90.20;;;;;;5028414;28;20188;-69
2023/01/16 08:38:51;;;;;;;23.77;10.57;;;5.20;90.50;;;;;;5029083;28;20263;-69
2023/01/16 08:52:44;;;;;;;17.70;9.23;;;5.60;91.20;;;;;;5024635;28;20206;-70
2023/01/16 08:55:10;;;;;;;15.53;9.13;;;5.80;91.00;;;;;;5027230;28;20222;-70
2023/01/16 08:57:36;;;;;;;22.83;9.87;;;5.90;90.60;;;;;;5027849;28;20686;-70
2023/01/16 09:00:05;;;;;;;24.40;10.43;;;6.00;90.30;;;;;;5027904;28;20184;-70
2023/01/16 09:02:34;;;;;;;20.50;10.33;;;6.10;90.00;;;;;;5027621;28;20192;-69
2023/01/16 09:05:00;;;;;;;13.50;8.13;;;6.20;90.20;;;;;;5033309;28;20183;-70
2023/01/16 09:07:25;;;;;;;22.67;10.67;;;6.30;89.60;;;;;;5028198;28;21062;-70
2023/01/16 09:09:51;;;;;;;17.23;8.50;;;6.30;88.40;;;;;;5028319;28;20696;-70
2023/01/16 09:15:02;;;;;;;15.63;8.33;;;6.40;88.40;;;;;;5031851;28;20279;-70
2023/01/16 09:17:27;;;;;;;26.37;10.17;;;6.40;87.60;;;;;;5027159;28;20585;-70
2023/01/16 09:19:54;;;;;;;17.17;9.07;;;6.40;87.60;;;;;;5025382;28;20184;-70
2023/01/16 09:22:19;;;;;;;15.27;8.47;;;6.40;88.00;;;;;;5025307;28;20759;-69
2023/01/16 09:24:45;;;;;;;16.53;9.80;;;6.50;88.10;;;;;;5027535;28;20192;-69
2023/01/16 09:27:14;;;;;;;18.87;9.50;;;6.50;87.70;;;;;;5026399;28;20261;-69
2023/01/16 09:29:41;;;;;;;12.70;7.43;;;6.60;87.90;;;;;;5025705;28;20176;-69
2023/01/16 09:32:08;;;;;;;13.17;7.97;;;6.70;88.20;;;;;;5027408;28;20650;-69
2023/01/16 09:34:38;;;;;;;18.50;9.37;;;6.80;87.50;;;;;;5027907;28;20242;-69
2023/01/16 09:37:05;;;;;;;12.23;6.87;;;6.90;87.20;;;;;;5026875;28;20642;-69
2023/01/16 09:39:31;;;;;;;13.07;7.90;;;7.00;87.00;;;;;;5027255;28;20188;-70
2023/01/16 09:45:06;;;;;;;6.63;5.23;;;7.20;86.50;;;;;;5018807;28;20737;-68
2023/01/16 09:47:33;;;;;;;15.40;6.33;;;7.30;85.10;;;;;;5027142;28;20216;-68
2023/01/16 09:50:10;;;;;;;9.70;7.17;;;7.40;85.00;;;;;;5031433;28;20237;-69
2023/01/16 09:58:35;;;;;;;12.33;7.77;;;7.40;84.50;;;;;;5026972;28;20617;-70
2023/01/16 10:01:04;;;;;;;18.13;8.43;;;7.50;84.90;;;;;;5026847;28;20180;-70
2023/01/16 10:03:30;;;;;;;14.13;8.17;;;7.50;85.30;;;;;;5026891;28;20173;-71
2023/01/16 10:06:12;;;;;;;17.73;10.50;;;7.60;84.70;;;;;;5042327;28;20262;-70
2023/01/16 10:09:06;;;;;;;16.47;9.63;;;7.70;85.20;;;;;;5027072;28;20309;-69
2023/01/16 10:11:58;;;;;;;20.10;9.17;;;7.80;85.30;;;;;;5025789;28;20184;-69
2023/01/16 10:15:02;;;;;;;13.37;8.63;;;7.90;85.30;;;;;;5028428;28;20711;-69
2023/01/16 10:18:06;;;;;;;14.07;8.23;;;7.90;83.80;;;;;;5018506;28;20180;-69
2023/01/16 10:20:43;;;;;;;14.20;8.20;;;7.90;82.60;;;;;;5022633;28;20200;-68
2023/01/16 10:23:50;;;;;;;14.67;7.30;;;7.90;83.80;;;;;;5038562;28;20760;-70
2023/01/16 10:26:45;;;;;;;14.80;8.10;;;8.00;83.30;;;;;;4983218;28;20340;-71
2023/01/16 10:29:30;;;;;;;11.43;7.03;;;8.10;82.00;;;;;;4974668;28;20218;-69
2023/01/16 10:32:19;;;;;;;16.47;7.47;;;8.00;82.40;;;;;;4983383;28;20403;-72
2023/01/16 10:35:14;;;;;;;13.80;8.53;;;8.00;82.40;;;;;;4982158;28;20193;-71
2023/01/16 10:37:43;;;;;;;12.10;8.07;;;8.00;82.60;;;;;;4983017;28;20197;-71
2023/01/16 10:40:15;;;;;;;14.37;7.90;;;8.00;82.80;;;;;;4971213;28;20239;-72
2023/01/16 10:51:03;;;;;;;11.97;8.03;;;8.00;82.10;;;;;;4978258;28;20216;-71
2023/01/16 10:53:31;;;;;;;13.80;8.17;;;8.10;82.80;;;;;;4988078;28;20188;-70
2023/01/16 10:55:56;;;;;;;14.23;7.90;;;8.30;83.40;;;;;;4977960;28;20340;-71
2023/01/16 10:58:35;;;;;;;12.63;8.43;;;8.60;84.30;;;;;;4983148;28;20268;-71
2023/01/16 11:01:14;;;;;;;13.83;8.27;;;9.00;83.10;;;;;;4989237;28;20188;-70
2023/01/16 11:03:48;;;;;;;15.67;9.40;;;9.40;84.30;;;;;;5040393;28;20172;-69
2023/01/16 11:06:26;;;;;;;15.57;9.40;;;9.90;82.50;;;;;;5021476;28;20242;-69
2023/01/16 11:08:57;;;;;;;14.10;8.15;;;10.50;81.30;;;;;;5030661;28;20580;-70
2023/01/16 11:20:34;;;;;;;16.20;10.70;;;12.90;74.20;;;;;;5035096;28;20235;-69
2023/01/16 11:23:23;;;;;;;19.55;11.00;;;13.50;73.80;;;;;;5034864;28;20181;-70
2023/01/16 11:25:51;;;;;;;17.45;10.63;;;14.00;73.80;;;;;;5030124;28;20184;-69
2023/01/16 11:28:22;;;;;;;20.13;10.77;;;14.50;70.80;;;;;;5029981;28;20307;-70
2023/01/16 11:30:52;;;;;;;18.60;10.27;;;15.00;71.10;;;;;;5018679;28;20185;-71
2023/01/16 11:33:34;;;;;;;20.88;11.13;;;15.50;70.50;;;;;;5029794;28;20258;-70
2023/01/16 11:36:03;;;;;;;16.17;10.52;;;16.20;67.40;;;;;;5039794;28;20238;-72
2023/01/16 11:38:32;;;;;;;15.90;10.20;;;16.60;67.90;;;;;;5028018;28;20819;-73
2023/01/16 11:41:00;;;;;;;17.20;10.15;;;17.00;66.00;;;;;;5025588;28;20222;-71
2023/01/16 11:46:27;;;;;;;11.10;8.70;;;17.50;63.20;;;;;;5022474;28;20186;-73
2023/01/16 11:48:55;;;;;;;13.43;9.40;;;17.50;63.60;;;;;;5037615;28;20957;-72
2023/01/16 11:51:26;;;;;;;11.13;8.43;;;17.50;62.90;;;;;;5032509;28;20232;-72
2023/01/16 11:53:54;;;;;;;11.50;9.90;;;17.60;63.00;;;;;;5030110;28;20926;-71
2023/01/16 11:56:31;;;;;;;13.05;9.60;;;17.50;63.70;;;;;;5035951;28;20206;-70
2023/01/16 11:59:18;;;;;;;14.43;10.25;;;17.10;61.40;;;;;;5023265;28;20204;-71
2023/01/16 12:02:21;;;;;;;11.88;9.13;;;16.80;62.00;;;;;;5035362;28;20179;-70
2023/01/16 12:08:23;;;;;;;11.80;8.27;;;16.00;62.00;;;;;;5030188;28;20619;-70
2023/01/16 12:11:06;;;;;;;10.27;8.18;;;15.80;63.80;;;;;;5027960;28;20234;-69
2023/01/16 12:14:20;;;;;;;10.15;7.80;;;15.80;65.00;;;;;;5031163;28;20250;-70
2023/01/16 12:17:07;;;;;;;12.82;9.23;;;15.70;63.90;;;;;;5030775;28;20184;-70
2023/01/16 12:20:15;;;;;;;14.35;9.55;;;15.60;63.80;;;;;;5029249;28;20204;-71
2023/01/16 12:22:40;;;;;;;11.85;8.80;;;15.30;62.80;;;;;;5023344;28;20188;-69
2023/01/16 12:25:21;;;;;;;11.52;8.32;;;15.00;63.80;;;;;;5021576;28;20202;-69
2023/01/16 12:27:46;;;;;;;13.07;7.85;;;14.90;64.80;;;;;;5027413;28;20276;-70
2023/01/16 12:30:23;;;;;;;13.15;8.18;;;14.70;64.40;;;;;;5028547;28;20203;-69
2023/01/16 12:33:13;;;;;;;14.07;8.52;;;14.70;65.20;;;;;;5024337;28;20203;-69
2023/01/16 12:35:57;;;;;;;11.88;8.45;;;14.50;64.30;;;;;;5022471;28;20246;-69
2023/01/16 12:39:03;;;;;;;13.07;8.73;;;14.00;65.70;;;;;;5032657;28;20235;-69
2023/01/16 12:45:02;;;;;;;10.23;8.05;;;13.20;65.50;;;;;;4964499;28;20206;-69
2023/01/16 12:47:56;;;;;;;12.60;8.23;;;12.80;67.00;;;;;;4966542;28;20777;-70
2023/01/16 12:50:58;;;;;;;8.65;6.80;;;12.30;66.90;;;;;;4942332;28;20195;-69
2023/01/16 12:53:42;;;;;;;12.77;8.13;;;11.90;67.80;;;;;;4908217;29;20413;-69
2023/01/16 12:56:22;;;;;;;13.57;7.95;;;11.60;68.40;;;;;;4893357;29;20200;-69
2023/01/16 12:58:55;;;;;;;10.32;7.85;;;11.20;69.30;;;;;;4908121;29;20242;-68
2023/01/16 13:01:28;;;;;;;8.98;6.80;;;11.10;69.90;;;;;;4904442;29;20264;-69
2023/01/16 13:04:11;;;;;;;9.32;6.25;;;11.00;70.50;;;;;;4904627;29;20185;-69
2023/01/16 13:06:47;;;;;;;8.50;5.80;;;10.90;70.20;;;;;;4911387;29;20234;-68
2023/01/16 13:09:38;;;;;;;9.93;5.95;;;10.70;70.70;;;;;;4905823;29;20251;-70
2023/01/16 13:15:17;;;;;;;9.32;6.32;;;10.20;71.60;;;;;;4907592;29;20198;-68
2023/01/16 13:17:55;;;;;;;12.38;6.70;;;10.10;72.00;;;;;;4907269;29;20245;-68
2023/01/16 13:20:24;;;;;;;9.48;6.53;;;10.00;72.00;;;;;;4919410;28;20275;-69
2023/01/16 13:23:10;;;;;;;11.77;5.47;;;9.90;72.20;;;;;;4999140;28;20668;-70
2023/01/16 13:25:42;;;;;;;8.13;6.18;;;9.80;72.40;;;;;;4997082;28;20196;-69
2023/01/16 13:28:17;;;;;;;10.35;5.53;;;9.70;72.40;;;;;;5034508;28;20369;-69
2023/01/16 13:30:42;;;;;;;10.02;4.85;;;9.60;72.70;;;;;;5038109;28;20222;-70
2023/01/16 13:33:17;;;;;;;5.10;4.60;;;9.50;72.90;;;;;;5027751;28;20935;-69
2023/01/16 13:36:16;;;;;;;8.30;6.50;;;9.50;73.10;;;;;;5037496;28;20206;-74
2023/01/16 13:39:12;;;;;;;5.95;5.07;;;9.30;73.20;;;;;;5038072;28;20188;-69
2023/01/16 13:41:43;;;;;;;6.13;4.80;;;9.20;73.60;;;;;;5020748;28;20261;-69
2023/01/16 13:47:12;;;;;;;8.80;5.03;;;9.20;73.70;;;;;;5023820;28;20586;-68
2023/01/16 13:49:38;;;;;;;8.05;5.38;;;9.10;74.00;;;;;;5035125;28;20180;-70
2023/01/16 13:52:14;;;;;;;8.15;5.07;;;8.90;74.10;;;;;;5028356;28;20181;-69
2023/01/16 13:54:48;;;;;;;7.93;5.45;;;8.90;74.20;;;;;;5038245;28;20191;-69
2023/01/16 13:57:13;;;;;;;11.47;5.33;;;8.80;74.40;;;;;;5029458;28;20275;-68
2023/01/16 13:59:56;;;;;;;5.72;4.10;;;8.80;74.50;;;;;;5034397;28;20271;-69
2023/01/16 14:02:36;;;;;;;5.87;5.03;;;8.70;74.60;;;;;;5027880;28;20253;-69
2023/01/16 14:05:05;;;;;;;4.07;3.77;;;8.60;74.60;;;;;;5023737;28;20267;-69
2023/01/16 14:10:45;;;;;;;5.63;4.63;;;8.50;74.70;;;;;;5026891;28;20326;-68
2023/01/16 14:13:23;;;;;;;8.47;5.70;;;8.40;75.00;;;;;;5026826;28;20192;-69
2023/01/16 14:18:45;;;;;;;11.30;5.30;;;8.40;75.00;;;;;;5026400;28;20280;-70
2023/01/16 14:21:24;;;;;;;11.53;5.90;;;8.30;75.10;;;;;;5028204;28;20204;-70
2023/01/16 14:24:00;;;;;;;10.47;5.73;;;8.30;75.10;;;;;;5028601;28;20556;-70
2023/01/16 14:26:51;;;;;;;8.13;5.40;;;8.20;75.00;;;;;;5031542;28;20211;-69